createdAt,value
2023-07-17T00:00:50.662Z,95285.00
2023-07-17T00:01:50.767Z,95289.00
2023-07-17T00:02:50.708Z,95291.00
2023-07-17T00:03:50.764Z,95287.00
2023-07-17T00:04:50.822Z,95289.00
2023-07-17T00:05:50.872Z,95289.00
2023-07-17T00:06:50.939Z,95287.00
2023-07-17T00:07:51.001Z,95291.00
2023-07-17T00:08:51.051Z,95289.00
2023-07-17T00:09:51.124Z,95289.00
2023-07-17T00:10:51.186Z,95287.00
2023-07-17T00:11:51.232Z,95291.00
2023-07-17T00:12:51.281Z,95287.00
2023-07-17T00:13:51.344Z,95289.00
2023-07-17T00:14:51.357Z,95289.00
2023-07-17T00:15:51.372Z,95293.00
2023-07-17T00:16:51.398Z,95293.00
2023-07-17T00:17:51.404Z,95293.00
2023-07-17T00:18:51.385Z,95295.00
2023-07-17T00:19:51.384Z,95295.00
2023-07-17T00:20:51.392Z,95289.00
2023-07-17T00:21:51.387Z,95289.00
2023-07-17T00:22:51.459Z,95289.00
2023-07-17T00:23:51.399Z,95291.00
2023-07-17T00:24:51.378Z,95291.00
2023-07-17T00:25:51.382Z,95291.00
2023-07-17T00:26:51.389Z,95295.00
2023-07-17T00:27:51.378Z,95295.00
2023-07-17T00:28:51.379Z,95295.00
2023-07-17T00:29:51.434Z,95295.00
2023-07-17T00:30:51.452Z,95293.00
2023-07-17T00:31:51.436Z,95295.00
2023-07-17T00:32:51.495Z,95289.00
2023-07-17T00:33:51.478Z,95287.00
2023-07-17T00:34:51.506Z,95287.00
2023-07-17T00:35:51.536Z,95281.00
2023-07-17T00:36:51.592Z,95283.00
2023-07-17T00:37:51.593Z,95285.00
2023-07-17T00:38:51.612Z,95289.00
2023-07-17T00:39:51.593Z,95291.00
2023-07-17T00:40:51.635Z,95291.00
2023-07-17T00:41:51.602Z,95293.00
2023-07-17T00:42:51.620Z,95291.00
2023-07-17T00:43:51.637Z,95293.00
2023-07-17T00:44:51.637Z,95291.00
2023-07-17T00:45:51.765Z,95293.00
2023-07-17T00:46:51.679Z,95293.00
2023-07-17T00:47:51.687Z,95291.00
2023-07-17T00:48:51.627Z,95289.00
2023-07-17T00:49:51.629Z,95289.00
2023-07-17T00:50:51.615Z,95289.00
2023-07-17T00:51:51.629Z,95289.00
2023-07-17T00:52:51.637Z,95287.00
2023-07-17T00:53:51.676Z,95287.00
2023-07-17T00:54:51.666Z,95287.00
2023-07-17T00:55:51.659Z,95289.00
2023-07-17T00:56:51.662Z,95289.00
2023-07-17T00:57:51.667Z,95291.00
2023-07-17T00:58:51.668Z,95291.00
2023-07-17T00:59:51.688Z,95289.00
2023-07-17T01:00:51.742Z,95289.00
2023-07-17T01:01:51.755Z,95289.00
2023-07-17T01:02:51.923Z,95289.00
2023-07-17T01:03:51.688Z,95289.00
2023-07-17T01:04:51.734Z,95289.00
2023-07-17T01:05:51.748Z,95293.00
2023-07-17T01:06:51.759Z,95289.00
2023-07-17T01:07:51.784Z,95293.00
2023-07-17T01:08:51.815Z,95295.00
2023-07-17T01:09:51.844Z,95295.00
2023-07-17T01:10:51.857Z,95301.00
2023-07-17T01:11:51.892Z,95301.00
2023-07-17T01:12:51.903Z,95301.00
2023-07-17T01:13:51.926Z,95299.00
2023-07-17T01:14:51.955Z,95299.00
2023-07-17T01:15:51.967Z,95299.00
2023-07-17T01:16:52.014Z,95293.00
2023-07-17T01:17:52.102Z,95297.00
2023-07-17T01:18:52.044Z,95293.00
2023-07-17T01:19:52.075Z,95291.00
2023-07-17T01:20:52.085Z,95291.00
2023-07-17T01:21:52.094Z,95289.00
2023-07-17T01:22:52.106Z,95289.00
2023-07-17T01:23:52.108Z,95291.00
2023-07-17T01:24:52.124Z,95293.00
2023-07-17T01:25:52.156Z,95293.00
2023-07-17T01:26:52.160Z,95293.00
2023-07-17T01:27:52.192Z,95295.00
2023-07-17T01:28:52.203Z,95295.00
2023-07-17T01:29:52.224Z,95295.00
2023-07-17T01:30:52.287Z,95295.00
2023-07-17T01:31:52.273Z,95295.00
2023-07-17T01:32:52.324Z,95297.00
2023-07-17T01:33:52.325Z,95297.00
2023-07-17T01:34:52.330Z,95293.00
2023-07-17T01:35:52.369Z,95293.00
2023-07-17T01:36:52.368Z,95291.00
2023-07-17T01:37:52.365Z,95291.00
2023-07-17T01:38:52.353Z,95291.00
2023-07-17T01:39:52.371Z,95291.00
2023-07-17T01:40:52.386Z,95287.00
2023-07-17T01:41:52.377Z,95289.00
2023-07-17T01:42:52.381Z,95289.00
2023-07-17T01:43:52.393Z,95289.00
2023-07-17T01:44:52.400Z,95291.00
2023-07-17T01:45:52.404Z,95291.00
2023-07-17T01:46:52.440Z,95289.00
2023-07-17T01:47:52.500Z,95289.00
2023-07-17T01:48:52.437Z,95289.00
2023-07-17T01:49:52.466Z,95287.00
2023-07-17T01:50:52.452Z,95289.00
2023-07-17T01:51:52.444Z,95287.00
2023-07-17T01:52:52.451Z,95287.00
2023-07-17T01:53:52.459Z,95291.00
2023-07-17T01:54:52.459Z,95289.00
2023-07-17T01:55:52.471Z,95291.00
2023-07-17T01:56:52.484Z,95291.00
2023-07-17T01:57:52.487Z,95293.00
2023-07-17T01:58:52.512Z,95295.00
2023-07-17T01:59:52.508Z,95295.00
2023-07-17T02:00:52.505Z,95297.00
2023-07-17T02:01:52.534Z,95301.00
2023-07-17T02:02:52.624Z,95301.00
2023-07-17T02:03:52.523Z,95305.00
2023-07-17T02:04:52.539Z,95301.00
2023-07-17T02:05:52.570Z,95301.00
2023-07-17T02:06:52.536Z,95297.00
2023-07-17T02:07:52.545Z,95295.00
2023-07-17T02:08:52.558Z,95291.00
2023-07-17T02:09:52.574Z,95293.00
2023-07-17T02:10:52.576Z,95293.00
2023-07-17T02:11:52.589Z,95291.00
2023-07-17T02:12:52.608Z,95293.00
2023-07-17T02:13:53.165Z,95291.00
2023-07-17T02:14:52.623Z,95289.00
2023-07-17T02:15:52.610Z,95291.00
2023-07-17T02:16:52.665Z,95289.00
2023-07-17T02:17:52.702Z,95289.00
2023-07-17T02:18:52.645Z,95289.00
2023-07-17T02:19:52.637Z,95287.00
2023-07-17T02:20:52.657Z,95289.00
2023-07-17T02:21:52.776Z,95287.00
2023-07-17T02:22:52.683Z,95289.00
2023-07-17T02:23:52.704Z,95289.00
2023-07-17T02:24:52.680Z,95289.00
2023-07-17T02:25:52.689Z,95289.00
2023-07-17T02:26:52.695Z,95287.00
2023-07-17T02:27:52.707Z,95287.00
2023-07-17T02:28:52.714Z,95287.00
2023-07-17T02:29:52.725Z,95291.00
2023-07-17T02:30:52.726Z,95291.00
2023-07-17T02:31:52.772Z,95291.00
2023-07-17T02:32:52.867Z,95293.00
2023-07-17T02:33:52.735Z,95293.00
2023-07-17T02:34:52.777Z,95293.00
2023-07-17T02:35:52.761Z,95291.00
2023-07-17T02:36:52.760Z,95293.00
2023-07-17T02:37:52.793Z,95291.00
2023-07-17T02:38:52.779Z,95295.00
2023-07-17T02:39:52.821Z,95295.00
2023-07-17T02:40:52.819Z,95297.00
2023-07-17T02:41:52.821Z,95295.00
2023-07-17T02:42:52.838Z,95297.00
2023-07-17T02:43:52.830Z,95295.00
2023-07-17T02:44:52.836Z,95289.00
2023-07-17T02:45:52.856Z,95289.00
2023-07-17T02:46:52.861Z,95293.00
2023-07-17T02:47:52.903Z,95293.00
2023-07-17T02:48:52.887Z,95295.00
2023-07-17T02:49:52.893Z,95299.00
2023-07-17T02:50:52.902Z,95299.00
2023-07-17T02:51:52.904Z,95303.00
2023-07-17T02:52:52.926Z,95305.00
2023-07-17T02:53:52.970Z,95307.00
2023-07-17T02:54:52.950Z,95307.00
2023-07-17T02:55:52.953Z,95307.00
2023-07-17T02:56:52.959Z,95309.00
2023-07-17T02:57:52.971Z,95311.00
2023-07-17T02:58:52.979Z,95313.00
2023-07-17T02:59:52.990Z,95311.00
2023-07-17T03:00:53.069Z,95309.00
2023-07-17T03:01:53.158Z,95309.00
2023-07-17T03:02:53.085Z,95311.00
2023-07-17T03:03:53.034Z,95311.00
2023-07-17T03:04:53.051Z,95313.00
2023-07-17T03:05:53.203Z,95309.00
2023-07-17T03:06:53.082Z,95317.00
2023-07-17T03:07:53.098Z,95313.00
2023-07-17T03:08:53.114Z,95315.00
2023-07-17T03:09:53.157Z,95317.00
2023-07-17T03:10:53.139Z,95318.00
2023-07-17T03:11:53.159Z,95317.00
2023-07-17T03:12:53.198Z,95315.00
2023-07-17T03:13:53.169Z,95317.00
2023-07-17T03:14:53.199Z,95313.00
2023-07-17T03:15:53.233Z,95313.00
2023-07-17T03:16:53.221Z,95311.00
2023-07-17T03:17:53.249Z,95311.00
2023-07-17T03:18:53.242Z,95309.00
2023-07-17T03:19:53.263Z,95309.00
2023-07-17T03:20:53.281Z,95311.00
2023-07-17T03:21:53.280Z,95311.00
2023-07-17T03:22:53.300Z,95311.00
2023-07-17T03:23:53.318Z,95311.00
2023-07-17T03:24:53.326Z,95313.00
2023-07-17T03:25:53.363Z,95313.00
2023-07-17T03:26:53.359Z,95313.00
2023-07-17T03:27:53.384Z,95313.00
2023-07-17T03:28:53.406Z,95315.00
2023-07-17T03:29:53.404Z,95313.00
2023-07-17T03:30:53.417Z,95313.00
2023-07-17T03:31:53.451Z,95315.00
2023-07-17T03:32:53.504Z,95313.00
2023-07-17T03:33:53.520Z,95313.00
2023-07-17T03:34:53.492Z,95315.00
2023-07-17T03:35:53.496Z,95311.00
2023-07-17T03:36:53.510Z,95311.00
2023-07-17T03:37:53.526Z,95309.00
2023-07-17T03:38:53.548Z,95309.00
2023-07-17T03:39:53.566Z,95307.00
2023-07-17T03:40:53.591Z,95303.00
2023-07-17T03:41:53.634Z,95305.00
2023-07-17T03:42:53.624Z,95311.00
2023-07-17T03:43:53.640Z,95307.00
2023-07-17T03:44:53.656Z,95309.00
2023-07-17T03:45:53.696Z,95307.00
2023-07-17T03:46:53.797Z,95309.00
2023-07-17T03:47:53.786Z,95305.00
2023-07-17T03:48:53.724Z,95305.00
2023-07-17T03:49:53.754Z,95307.00
2023-07-17T03:50:53.765Z,95307.00
2023-07-17T03:51:53.781Z,95305.00
2023-07-17T03:52:53.809Z,95309.00
2023-07-17T03:53:53.822Z,95313.00
2023-07-17T03:54:53.832Z,95317.00
2023-07-17T03:55:53.852Z,95318.00
2023-07-17T03:56:53.868Z,95320.00
2023-07-17T03:57:53.912Z,95324.00
2023-07-17T03:58:53.908Z,95326.00
2023-07-17T03:59:53.924Z,95328.00
2023-07-17T04:00:53.965Z,95328.00
2023-07-17T04:01:53.968Z,95328.00
2023-07-17T04:02:54.041Z,95326.00
2023-07-17T04:03:54.075Z,95326.00
2023-07-17T04:04:54.074Z,95328.00
2023-07-17T04:05:54.060Z,95322.00
2023-07-17T04:06:54.078Z,95326.00
2023-07-17T04:07:54.104Z,95326.00
2023-07-17T04:08:54.125Z,95326.00
2023-07-17T04:09:54.149Z,95328.00
2023-07-17T04:10:54.180Z,95328.00
2023-07-17T04:11:54.218Z,95330.00
2023-07-17T04:12:54.222Z,95334.00
2023-07-17T04:13:54.288Z,95334.00
2023-07-17T04:14:54.266Z,95334.00
2023-07-17T04:15:54.305Z,95336.00
2023-07-17T04:16:54.350Z,95334.00
2023-07-17T04:17:54.395Z,95338.00
2023-07-17T04:18:54.383Z,95334.00
2023-07-17T04:19:54.371Z,95328.00
2023-07-17T04:20:54.394Z,95328.00
2023-07-17T04:21:54.416Z,95326.00
2023-07-17T04:22:54.475Z,95324.00
2023-07-17T04:23:54.514Z,95324.00
2023-07-17T04:24:54.486Z,95324.00
2023-07-17T04:25:54.497Z,95322.00
2023-07-17T04:26:54.583Z,95320.00
2023-07-17T04:27:54.541Z,95320.00
2023-07-17T04:28:54.574Z,95322.00
2023-07-17T04:29:54.608Z,95324.00
2023-07-17T04:30:54.652Z,95328.00
2023-07-17T04:31:54.623Z,95330.00
2023-07-17T04:32:54.662Z,95330.00
2023-07-17T04:33:54.657Z,95332.00
2023-07-17T04:34:54.681Z,95332.00
2023-07-17T04:35:54.700Z,95332.00
2023-07-17T04:36:54.724Z,95332.00
2023-07-17T04:37:54.747Z,95332.00
2023-07-17T04:38:54.748Z,95332.00
2023-07-17T04:39:54.767Z,95330.00
2023-07-17T04:40:54.803Z,95330.00
2023-07-17T04:41:54.810Z,95324.00
2023-07-17T04:42:54.833Z,95324.00
2023-07-17T04:43:54.852Z,95328.00
2023-07-17T04:44:54.883Z,95336.00
2023-07-17T04:45:54.906Z,95336.00
2023-07-17T04:46:55.028Z,95342.00
2023-07-17T04:47:55.081Z,95350.00
2023-07-17T04:48:54.932Z,95350.00
2023-07-17T04:49:54.962Z,95356.00
2023-07-17T04:50:55.007Z,95358.00
2023-07-17T04:51:55.008Z,95360.00
2023-07-17T04:52:55.014Z,95360.00
2023-07-17T04:53:55.048Z,95358.00
2023-07-17T04:54:55.070Z,95354.00
2023-07-17T04:55:55.100Z,95350.00
2023-07-17T04:56:55.121Z,95346.00
2023-07-17T04:57:55.145Z,95346.00
2023-07-17T04:58:55.165Z,95342.00
2023-07-17T04:59:55.185Z,95350.00
2023-07-17T05:00:55.266Z,95354.00
2023-07-17T05:01:55.255Z,95358.00
2023-07-17T05:02:55.374Z,95362.00
2023-07-17T05:03:55.346Z,95362.00
2023-07-17T05:04:55.309Z,95362.00
2023-07-17T05:05:55.338Z,95358.00
2023-07-17T05:06:55.361Z,95358.00
2023-07-17T05:07:55.400Z,95360.00
2023-07-17T05:08:55.397Z,95364.00
2023-07-17T05:09:55.418Z,95368.00
2023-07-17T05:10:55.517Z,95372.00
2023-07-17T05:11:55.477Z,95375.00
2023-07-17T05:12:55.500Z,95377.00
2023-07-17T05:13:55.532Z,95383.00
2023-07-17T05:14:55.550Z,95385.00
2023-07-17T05:15:55.575Z,95383.00
2023-07-17T05:16:55.747Z,95387.00
2023-07-17T05:17:55.690Z,95385.00
2023-07-17T05:18:55.647Z,95387.00
2023-07-17T05:19:55.668Z,95387.00
2023-07-17T05:20:55.714Z,95387.00
2023-07-17T05:21:55.717Z,95387.00
2023-07-17T05:22:55.799Z,95393.00
2023-07-17T05:23:55.751Z,95403.00
2023-07-17T05:24:55.765Z,95409.00
2023-07-17T05:25:55.798Z,95413.00
2023-07-17T05:26:55.831Z,95420.00
2023-07-17T05:27:55.842Z,95424.00
2023-07-17T05:28:55.867Z,95424.00
2023-07-17T05:29:55.897Z,95426.00
2023-07-17T05:30:55.968Z,95428.00
2023-07-17T05:31:55.931Z,95434.00
2023-07-17T05:32:56.015Z,95434.00
2023-07-17T05:33:56.001Z,95436.00
2023-07-17T05:34:56.003Z,95438.00
2023-07-17T05:35:56.048Z,95438.00
2023-07-17T05:36:56.039Z,95440.00
2023-07-17T05:37:56.049Z,95442.00
2023-07-17T05:38:56.089Z,95444.00
2023-07-17T05:39:56.106Z,95446.00
2023-07-17T05:40:56.125Z,95444.00
2023-07-17T05:41:56.163Z,95446.00
2023-07-17T05:42:56.159Z,95446.00
2023-07-17T05:43:56.184Z,95446.00
2023-07-17T05:44:56.201Z,95444.00
2023-07-17T05:45:56.227Z,95444.00
2023-07-17T05:46:56.378Z,95444.00
2023-07-17T05:47:56.320Z,95442.00
2023-07-17T05:48:56.305Z,95438.00
2023-07-17T05:49:56.371Z,95434.00
2023-07-17T05:50:56.386Z,95428.00
2023-07-17T05:51:56.439Z,95426.00
2023-07-17T05:52:56.486Z,95432.00
2023-07-17T05:53:56.564Z,95436.00
2023-07-17T05:54:57.078Z,95440.00
2023-07-17T05:55:56.631Z,95440.00
2023-07-17T05:56:56.745Z,95438.00
2023-07-17T05:57:56.734Z,95436.00
2023-07-17T05:58:56.784Z,95442.00
2023-07-17T05:59:56.878Z,95448.00
2023-07-17T06:00:56.930Z,95446.00
2023-07-17T06:01:56.973Z,95446.00
2023-07-17T06:02:57.059Z,95444.00
2023-07-17T06:03:57.212Z,95450.00
2023-07-17T06:04:57.377Z,95448.00
2023-07-17T06:05:57.201Z,95448.00
2023-07-17T06:06:57.192Z,95452.00
2023-07-17T06:07:57.223Z,95454.00
2023-07-17T06:08:57.254Z,95458.00
2023-07-17T06:09:57.284Z,95462.00
2023-07-17T06:10:57.306Z,95458.00
2023-07-17T06:11:57.334Z,95462.00
2023-07-17T06:12:57.355Z,95460.00
2023-07-17T06:13:57.398Z,95464.00
2023-07-17T06:14:57.469Z,95464.00
2023-07-17T06:15:57.544Z,95466.00
2023-07-17T06:16:57.710Z,95473.00
2023-07-17T06:17:57.741Z,95475.00
2023-07-17T06:18:57.757Z,95475.00
2023-07-17T06:19:57.817Z,95477.00
2023-07-17T06:20:57.890Z,95479.00
2023-07-17T06:21:58.027Z,95481.00
2023-07-17T06:22:58.076Z,95481.00
2023-07-17T06:23:58.052Z,95479.00
2023-07-17T06:24:58.120Z,95481.00
2023-07-17T06:25:58.148Z,95481.00
2023-07-17T06:26:58.211Z,95487.00
2023-07-17T06:27:58.292Z,95487.00
2023-07-17T06:28:58.319Z,95491.00
2023-07-17T06:29:58.348Z,95499.00
2023-07-17T06:30:58.393Z,95493.00
2023-07-17T06:31:58.473Z,95487.00
2023-07-17T06:32:58.550Z,95485.00
2023-07-17T06:33:58.520Z,95491.00
2023-07-17T06:34:58.564Z,95487.00
2023-07-17T06:35:58.602Z,95485.00
2023-07-17T06:36:58.662Z,95487.00
2023-07-17T06:37:58.756Z,95491.00
2023-07-17T06:38:58.761Z,95493.00
2023-07-17T06:39:58.769Z,95497.00
2023-07-17T06:40:58.793Z,95497.00
2023-07-17T06:41:58.826Z,95497.00
2023-07-17T06:42:58.874Z,95499.00
2023-07-17T06:43:58.874Z,95497.00
2023-07-17T06:45:01.506Z,95497.00
2023-07-17T06:45:58.971Z,95503.00
2023-07-17T06:46:58.905Z,95505.00
2023-07-17T06:47:58.993Z,95509.00
2023-07-17T06:48:58.912Z,95509.00
2023-07-17T06:49:58.930Z,95511.00
2023-07-17T06:50:58.937Z,95511.00
2023-07-17T06:51:58.956Z,95509.00
2023-07-17T06:52:58.971Z,95513.00
2023-07-17T06:53:59.000Z,95517.00
2023-07-17T06:55:03.830Z,95519.00
2023-07-17T06:55:58.947Z,95520.00
2023-07-17T06:56:58.944Z,95524.00
2023-07-17T06:57:58.946Z,95524.00
2023-07-17T06:58:58.983Z,95524.00
2023-07-17T06:59:58.989Z,95526.00
2023-07-17T07:00:58.960Z,95526.00
2023-07-17T07:01:59.383Z,95526.00
2023-07-17T07:02:59.058Z,95524.00
2023-07-17T07:03:59.035Z,95524.00
2023-07-17T07:04:58.949Z,95524.00
2023-07-17T07:05:58.965Z,95524.00
2023-07-17T07:06:58.946Z,95524.00
2023-07-17T07:07:58.946Z,95528.00
2023-07-17T07:08:58.957Z,95526.00
2023-07-17T07:09:59.043Z,95528.00
2023-07-17T07:10:58.965Z,95530.00
2023-07-17T07:11:58.978Z,95530.00
2023-07-17T07:12:59.001Z,95532.00
2023-07-17T07:13:58.977Z,95532.00
2023-07-17T07:14:58.968Z,95536.00
2023-07-17T07:15:59.012Z,95538.00
2023-07-17T07:16:59.014Z,95542.00
2023-07-17T07:17:59.025Z,95544.00
2023-07-17T07:18:58.954Z,95550.00
2023-07-17T07:19:58.971Z,95552.00
2023-07-17T07:20:58.949Z,95550.00
2023-07-17T07:21:58.955Z,95552.00
2023-07-17T07:22:58.990Z,95550.00
2023-07-17T07:23:58.932Z,95548.00
2023-07-17T07:24:58.934Z,95550.00
2023-07-17T07:25:58.966Z,95554.00
2023-07-17T07:26:58.940Z,95554.00
2023-07-17T07:27:58.939Z,95556.00
2023-07-17T07:28:58.932Z,95560.00
2023-07-17T07:29:58.938Z,95562.00
2023-07-17T07:30:58.976Z,95564.00
2023-07-17T07:31:58.982Z,95569.00
2023-07-17T07:32:58.986Z,95569.00
2023-07-17T07:33:58.940Z,95571.00
2023-07-17T07:34:58.934Z,95567.00
2023-07-17T07:35:58.929Z,95569.00
2023-07-17T07:36:58.927Z,95569.00
2023-07-17T07:37:58.928Z,95569.00
2023-07-17T07:38:58.948Z,95571.00
2023-07-17T07:39:58.932Z,95571.00
2023-07-17T07:40:58.934Z,95573.00
2023-07-17T07:41:58.990Z,95575.00
2023-07-17T07:42:58.941Z,95571.00
2023-07-17T07:43:58.925Z,95571.00
2023-07-17T07:44:58.927Z,95573.00
2023-07-17T07:45:58.970Z,95571.00
2023-07-17T07:46:58.914Z,95569.00
2023-07-17T07:47:58.953Z,95571.00
2023-07-17T07:48:58.915Z,95569.00
2023-07-17T07:49:58.949Z,95567.00
2023-07-17T07:50:58.917Z,95569.00
2023-07-17T07:51:58.910Z,95567.00
2023-07-17T07:52:58.904Z,95569.00
2023-07-17T07:53:58.904Z,95567.00
2023-07-17T07:55:00.690Z,95571.00
2023-07-17T07:55:58.904Z,95567.00
2023-07-17T07:56:58.896Z,95566.00
2023-07-17T07:57:59.011Z,95566.00
2023-07-17T07:58:58.964Z,95566.00
2023-07-17T07:59:58.955Z,95566.00
2023-07-17T08:00:58.895Z,95567.00
2023-07-17T08:01:58.960Z,95567.00
2023-07-17T08:02:58.978Z,95566.00
2023-07-17T08:03:58.923Z,95566.00
2023-07-17T08:04:58.899Z,95567.00
2023-07-17T08:05:58.942Z,95564.00
2023-07-17T08:06:58.908Z,95566.00
2023-07-17T08:07:58.965Z,95566.00
2023-07-17T08:08:58.921Z,95566.00
2023-07-17T08:09:58.917Z,95566.00
2023-07-17T08:10:58.925Z,95564.00
2023-07-17T08:11:58.963Z,95562.00
2023-07-17T08:12:58.938Z,95567.00
2023-07-17T08:13:58.970Z,95569.00
2023-07-17T08:14:58.961Z,95569.00
2023-07-17T08:15:58.989Z,95571.00
2023-07-17T08:16:58.952Z,95567.00
2023-07-17T08:17:59.076Z,95566.00
2023-07-17T08:18:58.953Z,95566.00
2023-07-17T08:19:58.964Z,95566.00
2023-07-17T08:20:58.963Z,95564.00
2023-07-17T08:21:58.948Z,95564.00
2023-07-17T08:22:59.096Z,95564.00
2023-07-17T08:23:58.975Z,95569.00
2023-07-17T08:24:58.964Z,95567.00
2023-07-17T08:25:59.053Z,95567.00
2023-07-17T08:27:57.962Z,95569.00
2023-07-17T08:28:58.959Z,95564.00
2023-07-17T08:29:58.985Z,95566.00
2023-07-17T08:30:59.034Z,95560.00
2023-07-17T08:31:59.312Z,95562.00
2023-07-17T08:32:59.001Z,95562.00
2023-07-17T08:33:58.967Z,95560.00
2023-07-17T08:34:58.946Z,95558.00
2023-07-17T08:35:58.939Z,95556.00
2023-07-17T08:36:58.941Z,95556.00
2023-07-17T08:37:58.944Z,95560.00
2023-07-17T08:38:58.947Z,95560.00
2023-07-17T08:39:58.951Z,95562.00
2023-07-17T08:40:58.991Z,95560.00
2023-07-17T08:41:58.954Z,95562.00
2023-07-17T08:42:58.945Z,95560.00
2023-07-17T08:43:58.948Z,95558.00
2023-07-17T08:44:58.949Z,95560.00
2023-07-17T08:46:01.042Z,95556.00
2023-07-17T08:46:58.947Z,95558.00
2023-07-17T08:47:59.044Z,95556.00
2023-07-17T08:48:58.939Z,95550.00
2023-07-17T08:49:58.955Z,95550.00
2023-07-17T08:50:58.963Z,95550.00
2023-07-17T08:51:58.942Z,95552.00
2023-07-17T08:52:58.968Z,95546.00
2023-07-17T08:54:13.566Z,95548.00
2023-07-17T08:54:58.949Z,95546.00
2023-07-17T08:55:58.923Z,95552.00
2023-07-17T08:56:58.925Z,95544.00
2023-07-17T08:57:58.962Z,95548.00
2023-07-17T08:58:58.953Z,95546.00
2023-07-17T08:59:59.032Z,95544.00
2023-07-17T09:00:58.933Z,95544.00
2023-07-17T09:01:58.975Z,95546.00
2023-07-17T09:02:58.992Z,95542.00
2023-07-17T09:03:58.908Z,95542.00
2023-07-17T09:04:58.915Z,95544.00
2023-07-17T09:05:58.893Z,95540.00
2023-07-17T09:06:58.889Z,95540.00
2023-07-17T09:07:58.876Z,95538.00
2023-07-17T09:08:58.871Z,95538.00
2023-07-17T09:09:58.862Z,95538.00
2023-07-17T09:10:58.859Z,95534.00
2023-07-17T09:11:58.851Z,95534.00
2023-07-17T09:12:58.859Z,95536.00
2023-07-17T09:13:58.854Z,95532.00
2023-07-17T09:14:58.829Z,95534.00
2023-07-17T09:15:58.826Z,95534.00
2023-07-17T09:16:58.833Z,95536.00
2023-07-17T09:17:58.868Z,95538.00
2023-07-17T09:18:58.803Z,95534.00
2023-07-17T09:19:58.790Z,95536.00
2023-07-17T09:20:58.783Z,95532.00
2023-07-17T09:21:58.767Z,95532.00
2023-07-17T09:22:58.812Z,95528.00
2023-07-17T09:23:58.834Z,95530.00
2023-07-17T09:24:58.909Z,95526.00
2023-07-17T09:25:58.917Z,95526.00
2023-07-17T09:26:58.946Z,95524.00
2023-07-17T09:27:58.998Z,95522.00
2023-07-17T09:28:59.098Z,95526.00
2023-07-17T09:29:59.113Z,95524.00
2023-07-17T09:30:59.235Z,95522.00
2023-07-17T09:31:59.225Z,95522.00
2023-07-17T09:32:59.299Z,95519.00
2023-07-17T09:33:59.376Z,95522.00
2023-07-17T09:34:59.388Z,95520.00
2023-07-17T09:35:59.439Z,95522.00
2023-07-17T09:36:59.500Z,95519.00
2023-07-17T09:37:59.574Z,95522.00
2023-07-17T09:38:59.609Z,95520.00
2023-07-17T09:39:59.663Z,95520.00
2023-07-17T09:40:59.722Z,95522.00
2023-07-17T09:41:59.767Z,95519.00
2023-07-17T09:42:59.814Z,95519.00
2023-07-17T09:43:59.870Z,95519.00
2023-07-17T09:44:59.917Z,95519.00
2023-07-17T09:45:59.963Z,95517.00
2023-07-17T09:47:00.075Z,95517.00
2023-07-17T09:48:00.175Z,95515.00
2023-07-17T09:49:00.115Z,95511.00
2023-07-17T09:50:00.188Z,95507.00
2023-07-17T09:51:00.202Z,95511.00
2023-07-17T09:52:00.243Z,95505.00
2023-07-17T09:53:00.288Z,95503.00
2023-07-17T09:54:00.338Z,95505.00
2023-07-17T09:55:00.369Z,95495.00
2023-07-17T09:56:00.416Z,95501.00
2023-07-17T09:57:00.453Z,95495.00
2023-07-17T09:58:00.566Z,95497.00
2023-07-17T09:59:00.536Z,95495.00
2023-07-17T10:00:00.588Z,95489.00
2023-07-17T10:01:00.699Z,95489.00
2023-07-17T10:02:00.677Z,95485.00
2023-07-17T10:03:00.787Z,95483.00
2023-07-17T10:04:00.802Z,95479.00
2023-07-17T10:05:00.867Z,95479.00
2023-07-17T10:06:00.871Z,95479.00
2023-07-17T10:07:00.889Z,95481.00
2023-07-17T10:08:00.960Z,95483.00
2023-07-17T10:09:00.940Z,95483.00
2023-07-17T10:10:00.970Z,95483.00
2023-07-17T10:11:01.004Z,95481.00
2023-07-17T10:12:01.031Z,95481.00
2023-07-17T10:13:01.050Z,95473.00
2023-07-17T10:14:01.077Z,95477.00
2023-07-17T10:15:01.127Z,95475.00
2023-07-17T10:16:01.111Z,95471.00
2023-07-17T10:17:01.213Z,95468.00
2023-07-17T10:18:01.219Z,95471.00
2023-07-17T10:19:01.200Z,95466.00
2023-07-17T10:20:01.166Z,95466.00
2023-07-17T10:21:01.192Z,95466.00
2023-07-17T10:22:01.259Z,95462.00
2023-07-17T10:23:01.253Z,95464.00
2023-07-17T10:24:01.241Z,95464.00
2023-07-17T10:25:01.233Z,95458.00
2023-07-17T10:26:01.251Z,95462.00
2023-07-17T10:27:01.250Z,95460.00
2023-07-17T10:28:01.366Z,95456.00
2023-07-17T10:29:01.264Z,95458.00
2023-07-17T10:30:01.303Z,95456.00
2023-07-17T10:31:01.323Z,95454.00
2023-07-17T10:32:01.300Z,95452.00
2023-07-17T10:33:01.292Z,95446.00
2023-07-17T10:34:01.289Z,95444.00
2023-07-17T10:35:01.271Z,95440.00
2023-07-17T10:36:01.283Z,95448.00
2023-07-17T10:37:01.282Z,95440.00
2023-07-17T10:38:01.322Z,95444.00
2023-07-17T10:39:01.266Z,95442.00
2023-07-17T10:40:01.262Z,95444.00
2023-07-17T10:41:01.323Z,95444.00
2023-07-17T10:42:01.253Z,95440.00
2023-07-17T10:43:01.228Z,95446.00
2023-07-17T10:44:17.446Z,95440.00
2023-07-17T10:45:01.194Z,95434.00
2023-07-17T10:46:01.227Z,95434.00
2023-07-17T10:47:01.219Z,95432.00
2023-07-17T10:48:01.202Z,95426.00
2023-07-17T10:49:01.104Z,95428.00
2023-07-17T10:50:01.072Z,95428.00
2023-07-17T10:51:01.068Z,95430.00
2023-07-17T10:52:01.059Z,95424.00
2023-07-17T10:53:01.002Z,95426.00
2023-07-17T10:54:01.037Z,95426.00
2023-07-17T10:55:00.956Z,95424.00
2023-07-17T10:56:00.920Z,95424.00
2023-07-17T10:57:00.889Z,95420.00
2023-07-17T10:58:00.865Z,95415.00
2023-07-17T10:59:00.829Z,95418.00
2023-07-17T11:00:00.799Z,95417.00
2023-07-17T11:01:00.773Z,95413.00
2023-07-17T11:02:00.836Z,95415.00
2023-07-17T11:03:00.747Z,95413.00
2023-07-17T11:04:00.755Z,95413.00
2023-07-17T11:05:00.676Z,95415.00
2023-07-17T11:06:00.635Z,95411.00
2023-07-17T11:07:00.605Z,95409.00
2023-07-17T11:08:00.570Z,95409.00
2023-07-17T11:09:00.536Z,95407.00
2023-07-17T11:10:00.675Z,95405.00
2023-07-17T11:11:00.480Z,95403.00
2023-07-17T11:12:00.447Z,95393.00
2023-07-17T11:13:00.418Z,95395.00
2023-07-17T11:14:00.382Z,95393.00
2023-07-17T11:15:00.362Z,95393.00
2023-07-17T11:16:00.324Z,95393.00
2023-07-17T11:17:00.376Z,95393.00
2023-07-17T11:18:00.388Z,95393.00
2023-07-17T11:19:00.235Z,95389.00
2023-07-17T11:20:00.236Z,95393.00
2023-07-17T11:21:00.189Z,95393.00
2023-07-17T11:22:00.159Z,95389.00
2023-07-17T11:23:00.169Z,95389.00
2023-07-17T11:24:00.112Z,95387.00
2023-07-17T11:25:00.088Z,95389.00
2023-07-17T11:26:00.089Z,95389.00
2023-07-17T11:27:00.016Z,95389.00
2023-07-17T11:27:59.999Z,95389.00
2023-07-17T11:28:59.969Z,95383.00
2023-07-17T11:29:59.940Z,95387.00
2023-07-17T11:30:59.908Z,95383.00
2023-07-17T11:31:59.905Z,95377.00
2023-07-17T11:32:59.929Z,95379.00
2023-07-17T11:33:59.894Z,95375.00
2023-07-17T11:34:59.799Z,95373.00
2023-07-17T11:35:59.772Z,95375.00
2023-07-17T11:36:59.751Z,95370.00
2023-07-17T11:37:59.714Z,95368.00
2023-07-17T11:38:59.701Z,95366.00
2023-07-17T11:39:59.666Z,95366.00
2023-07-17T11:40:59.654Z,95366.00
2023-07-17T11:41:59.638Z,95366.00
2023-07-17T11:42:59.585Z,95360.00
2023-07-17T11:43:59.552Z,95360.00
2023-07-17T11:44:59.526Z,95362.00
2023-07-17T11:45:59.526Z,95360.00